Terminal Aerodrome Forecast
Issued by NWS Cleveland, OH

Home | Current Version | Previous Version | Graphics & Text | Print | Product List | Glossary On
Versions: 1 2 3 4 5 6 7 8 9 10 11 12 13 14 15 16 17 18
000
FTUS41 KCLE 310500
TAFYNG
TAF
KYNG 310540Z 3106/0106 22005KT P6SM -TSRA BKN040CB OVC080
     FM310700 23004KT 5SM BR SCT008 BKN050
     FM310800 24004KT 4SM BR BKN008
      TEMPO 3110/3113 1SM BR OVC004
     FM311400 25006KT P6SM BKN012
     FM311700 24009KT P6SM BKN040
     FM010100 VRB03KT P6SM SCT050=

USA.gov is the U.S. government's official web portal to all federal, state and local government web resources and services.